Time;durP1;ratioP1;P1;durP2;ratioP2;P2;SDS_P1;SDS_P2;PMS_P1;PMS_P2;Temp;Humidity;BMP_temperature;BMP_pressure;BME280_temperature;BME280_humidity;BME280_pressure;Samples;Min_cycle;Max_cycle;Signal;HPM_P1;HPM_P2
2024/04/16 00:00:07;;;;;;;;;3.50;0.25;;;;;9.42;56.82;101110.94;5423958;26;44107;-74
2024/04/16 00:02:32;;;;;;;;;1.00;0.00;;;;;9.40;57.35;101105.00;5450694;26;44059;-77
2024/04/16 00:04:58;;;;;;;;;2.50;0.00;;;;;9.37;57.33;101104.47;5450233;26;58786;-76
2024/04/16 00:07:24;;;;;;;;;2.75;1.00;;;;;9.24;56.89;101092.59;5453383;26;44306;-76
2024/04/16 00:09:49;;;;;;;;;0.00;0.00;;;;;9.34;57.22;101109.13;5447674;26;44096;-78
2024/04/16 00:12:14;;;;;;;;;0.00;0.00;;;;;9.18;57.49;101082.69;5440106;26;44340;-74
2024/04/16 00:14:40;;;;;;;;;1.00;1.00;;;;;9.33;57.32;101117.25;5454320;25;70507;-79
2024/04/16 00:17:06;;;;;;;;;0.25;0.00;;;;;9.31;57.00;101106.00;5448114;25;71265;-77
2024/04/16 00:19:31;;;;;;;;;0.25;0.00;;;;;9.14;57.67;101086.66;5452261;26;43969;-76
2024/04/16 00:21:57;;;;;;;;;2.25;0.00;;;;;9.25;57.80;101106.66;5449727;25;44218;-78
2024/04/16 00:24:26;;;;;;;;;1.50;0.00;;;;;9.29;57.86;101110.63;5442204;26;44114;-74
2024/04/16 00:26:51;;;;;;;;;0.00;0.00;;;;;9.28;57.68;101111.63;5446971;25;44076;-79
2024/04/16 00:29:17;;;;;;;;;1.25;0.00;;;;;9.23;57.24;101100.72;5442289;25;61885;-78
2024/04/16 00:31:42;;;;;;;;;0.50;0.00;;;;;9.27;57.19;101102.84;5478935;25;44422;-78
2024/04/16 00:34:08;;;;;;;;;2.00;0.50;;;;;9.29;57.84;101095.56;5452759;25;47306;-76
2024/04/16 00:36:33;;;;;;;;;1.75;1.00;;;;;9.24;57.76;101073.25;5449155;25;65771;-74
2024/04/16 00:38:59;;;;;;;;;2.75;0.75;;;;;9.16;57.62;101061.69;5450264;25;44528;-75
2024/04/16 00:41:24;;;;;;;;;2.00;1.00;;;;;9.27;57.92;101071.09;5450730;25;66385;-76
2024/04/16 00:43:50;;;;;;;;;2.50;0.00;;;;;9.25;57.88;101065.16;5450645;26;62383;-79
2024/04/16 00:46:15;;;;;;;;;1.00;0.50;;;;;9.24;57.72;101062.69;5452034;25;44092;-79
2024/04/16 00:48:40;;;;;;;;;2.00;0.75;;;;;9.22;58.11;101062.84;5451408;25;62110;-77
2024/04/16 00:51:06;;;;;;;;;2.00;0.50;;;;;9.21;57.63;101063.81;5450999;25;64152;-81
2024/04/16 00:53:31;;;;;;;;;1.50;0.00;;;;;9.20;57.66;101054.25;5449738;25;69914;-76
2024/04/16 00:55:57;;;;;;;;;1.00;0.25;;;;;9.15;57.43;101049.47;5449492;25;44035;-75
2024/04/16 00:58:23;;;;;;;;;0.50;0.00;;;;;9.06;57.47;101031.94;5419099;26;44077;-74
2024/04/16 01:00:48;;;;;;;;;9.25;0.75;;;;;9.22;57.91;101059.38;5451041;26;51469;-76
2024/04/16 01:03:14;;;;;;;;;1.00;1.00;;;;;9.21;57.70;101058.53;5447110;25;55330;-77
2024/04/16 01:05:39;;;;;;;;;1.00;0.25;;;;;9.21;57.96;101053.25;5447277;25;61275;-74
2024/04/16 01:08:05;;;;;;;;;4.00;0.50;;;;;9.16;57.79;101048.47;5412347;26;55222;-77
2024/04/16 01:10:36;;;;;;;;;1.50;0.00;;;;;9.14;58.37;101052.25;5452774;25;45927;-74
2024/04/16 01:13:02;;;;;;;;;3.75;1.50;;;;;9.15;58.23;101046.81;5444923;26;46592;-74
2024/04/16 01:15:27;;;;;;;;;1.25;0.00;;;;;9.15;57.81;101049.47;5410495;26;43999;-77
2024/04/16 01:17:53;;;;;;;;;2.00;2.00;;;;;9.13;58.13;101042.69;5441760;25;51065;-76
2024/04/16 01:20:19;;;;;;;;;6.50;0.00;;;;;9.09;57.64;101025.50;5443374;25;44143;-74
2024/04/16 01:22:50;;;;;;;;;1.50;0.00;;;;;9.05;58.78;101035.56;5446367;26;44086;-74
2024/04/16 01:25:15;;;;;;;;;0.25;0.00;;;;;9.04;58.52;101040.03;5448973;26;43985;-79
2024/04/16 01:27:41;;;;;;;;;5.25;1.00;;;;;8.92;58.24;101024.66;5445123;25;44145;-81
2024/04/16 01:30:06;;;;;;;;;1.50;0.25;;;;;9.00;58.35;101032.59;5450932;25;65839;-77
2024/04/16 01:32:32;;;;;;;;;1.25;0.00;;;;;8.90;58.63;101009.78;5448599;25;44110;-79
2024/04/16 01:34:57;;;;;;;;;7.75;1.25;;;;;8.87;58.52;101012.78;5446917;26;43930;-75
2024/04/16 01:37:23;;;;;;;;;3.00;0.00;;;;;8.85;58.05;101008.66;5449199;25;65014;-77
2024/04/16 01:39:48;;;;;;;;;1.00;0.00;;;;;8.83;57.96;101011.47;5448819;25;57990;-80
2024/04/16 01:42:13;;;;;;;;;3.25;1.25;;;;;8.94;58.45;101020.03;5447781;25;65230;-80
2024/04/16 01:44:45;;;;;;;;;5.50;0.00;;;;;8.85;58.86;101022.69;5454820;25;58834;-80
2024/04/16 01:47:11;;;;;;;;;4.75;1.00;;;;;8.71;58.77;100999.56;5448437;25;44099;-78
2024/04/16 01:49:36;;;;;;;;;1.75;0.00;;;;;8.86;58.73;101027.00;5446730;25;44079;-80
2024/04/16 01:52:02;;;;;;;;;3.00;1.00;;;;;8.87;58.57;101028.63;5455466;26;69714;-76
2024/04/16 01:54:28;;;;;;;;;3.00;1.00;;;;;8.81;58.53;101018.72;5455702;26;44100;-77
2024/04/16 01:56:53;;;;;;;;;0.75;0.75;;;;;8.84;59.55;101022.88;5455924;25;43991;-79
2024/04/16 01:59:18;;;;;;;;;4.00;0.00;;;;;8.86;58.83;101019.06;5453685;26;50131;-81
2024/04/16 02:01:44;;;;;;;;;2.00;1.75;;;;;8.83;58.88;101014.09;5437140;25;70231;-74
2024/04/16 02:04:09;;;;;;;;;8.75;1.00;;;;;8.86;58.84;101024.34;5455969;26;44379;-80
2024/04/16 02:06:35;;;;;;;;;6.25;0.00;;;;;8.86;59.08;101018.25;5441655;25;58890;-78
2024/04/16 02:09:01;;;;;;;;;5.00;0.75;;;;;8.86;59.23;101028.81;5449002;26;63419;-77
2024/04/16 02:11:26;;;;;;;;;4.00;0.25;;;;;8.85;59.30;101027.16;5421547;26;44859;-80
2024/04/16 02:13:55;;;;;;;;;4.00;1.00;;;;;8.82;59.22;101025.66;5446960;26;66250;-81
2024/04/16 02:16:21;;;;;;;;;1.25;0.50;;;;;8.70;59.09;101004.00;5456166;25;44159;-80
2024/04/16 02:18:46;;;;;;;;;1.00;1.00;;;;;8.80;59.10;101025.00;5452815;26;61491;-77
2024/04/16 02:21:12;;;;;;;;;3.00;0.00;;;;;8.73;59.18;101016.94;5445835;25;64169;-75
2024/04/16 02:23:37;;;;;;;;;2.00;1.00;;;;;8.77;59.41;101025.34;5464035;25;43956;-78
2024/04/16 02:26:03;;;;;;;;;2.75;1.00;;;;;8.78;59.29;101018.25;5456105;25;49060;-77
2024/04/16 02:28:28;;;;;;;;;4.50;1.00;;;;;8.76;59.38;101021.03;5452810;25;44084;-79
2024/04/16 02:30:53;;;;;;;;;2.50;0.25;;;;;8.74;59.31;101023.88;5455731;25;68467;-79
2024/04/16 02:33:19;;;;;;;;;5.50;1.00;;;;;8.70;59.37;101019.88;5458259;26;52341;-81
2024/04/16 02:35:45;;;;;;;;;1.50;0.00;;;;;8.63;58.98;101004.84;5426135;26;43943;-80
2024/04/16 02:38:10;;;;;;;;;2.25;1.00;;;;;8.72;59.80;101011.78;5455433;25;50062;-78
2024/04/16 02:40:36;;;;;;;;;1.00;0.25;;;;;8.69;59.78;100996.25;5454845;25;44756;-79
2024/04/16 02:43:01;;;;;;;;;6.00;0.00;;;;;8.75;59.29;100995.59;5442355;26;43919;-75
2024/04/16 02:45:27;;;;;;;;;2.00;1.00;;;;;8.70;59.83;100993.44;5453965;26;63920;-74
2024/04/16 02:47:53;;;;;;;;;5.00;1.00;;;;;8.73;59.78;100995.78;5457365;25;43995;-83
2024/04/16 02:50:18;;;;;;;;;5.50;0.50;;;;;8.76;59.53;100991.97;5451818;26;44816;-80
2024/04/16 02:52:43;;;;;;;;;0.25;0.00;;;;;8.78;59.47;100981.25;5445262;26;43965;-77
2024/04/16 02:55:09;;;;;;;;;3.50;1.00;;;;;8.76;59.77;100968.16;5452655;26;64795;-81
2024/04/16 02:57:34;;;;;;;;;5.25;1.00;;;;;8.63;59.56;100952.81;5412175;26;44986;-81
2024/04/16 03:00:01;;;;;;;;;4.50;1.00;;;;;8.79;59.69;100990.81;5455345;25;44160;-77
2024/04/16 03:02:26;;;;;;;;;2.25;1.00;;;;;8.78;59.76;100987.34;5446774;25;44599;-79
2024/04/16 03:04:52;;;;;;;;;5.25;1.25;;;;;8.79;59.37;100991.63;5456319;26;62602;-76
2024/04/16 03:07:17;;;;;;;;;1.75;0.25;;;;;8.79;59.36;100985.53;5459807;25;66151;-79
2024/04/16 03:09:43;;;;;;;;;0.25;0.00;;;;;8.64;59.34;100953.66;5397518;26;46468;-75
2024/04/16 03:12:08;;;;;;;;;0.25;0.00;;;;;8.70;59.22;100971.47;5456038;25;44035;-75
2024/04/16 03:14:34;;;;;;;;;1.75;0.75;;;;;8.64;59.39;100964.22;5453664;25;43917;-74
2024/04/16 03:16:59;;;;;;;;;0.50;0.50;;;;;8.78;59.70;101000.56;5448684;26;51725;-77
2024/04/16 03:19:25;;;;;;;;;3.50;0.00;;;;;8.76;59.68;100989.31;5448652;25;44802;-74
2024/04/16 03:21:50;;;;;;;;;5.50;1.00;;;;;8.58;59.28;100976.28;5451098;26;43997;-77
2024/04/16 03:24:16;;;;;;;;;3.00;1.00;;;;;8.56;59.10;100971.16;5448970;25;44166;-78
2024/04/16 03:26:41;;;;;;;;;6.25;0.00;;;;;8.60;59.54;100967.19;5454386;26;44198;-80
2024/04/16 03:29:07;;;;;;;;;1.50;0.00;;;;;8.75;59.38;100982.38;5453225;25;58308;-76
2024/04/16 03:31:32;;;;;;;;;4.00;0.00;;;;;8.75;59.69;100980.59;5452779;25;58394;-81
2024/04/16 03:33:57;;;;;;;;;3.75;0.00;;;;;8.70;59.83;100979.41;5450526;25;60922;-76
2024/04/16 03:36:26;;;;;;;;;2.75;0.00;;;;;8.69;60.04;100975.94;5448722;25;64250;-77
2024/04/16 03:38:51;;;;;;;;;1.25;0.00;;;;;8.70;59.65;100982.06;5454423;26;45490;-74
2024/04/16 03:41:17;;;;;;;;;3.00;1.00;;;;;8.69;59.72;100991.78;5452782;25;53928;-76
2024/04/16 03:43:42;;;;;;;;;1.25;0.00;;;;;8.65;59.64;100974.63;5448592;25;43974;-81
2024/04/16 03:46:08;;;;;;;;;1.00;0.00;;;;;8.52;59.63;100948.69;5469825;25;44051;-77
2024/04/16 03:48:34;;;;;;;;;1.00;0.75;;;;;8.68;59.76;100969.00;5447184;26;44369;-78
2024/04/16 03:50:59;;;;;;;;;3.00;1.00;;;;;8.72;59.93;100990.66;5454474;26;43971;-79
2024/04/16 03:53:25;;;;;;;;;2.50;0.00;;;;;8.72;60.67;100980.06;5451101;26;60441;-76
2024/04/16 03:55:50;;;;;;;;;2.00;0.00;;;;;8.62;61.39;100966.22;5450443;25;44094;-81
2024/04/16 03:58:16;;;;;;;;;0.00;0.00;;;;;8.73;60.87;100990.50;5452561;25;45134;-79
2024/04/16 04:03:26;;;;;;;;;2.75;0.25;;;;;8.75;61.33;100979.75;5450491;26;44376;-79
2024/04/16 04:05:51;;;;;;;;;3.50;0.00;;;;;8.77;61.40;100969.00;5452689;25;43993;-79
2024/04/16 04:08:17;;;;;;;;;2.00;1.00;;;;;8.75;61.10;100964.72;5449763;26;44177;-78
2024/04/16 04:10:42;;;;;;;;;0.50;0.50;;;;;8.75;60.95;100964.72;5449945;25;67216;-77
2024/04/16 04:13:07;;;;;;;;;2.00;0.75;;;;;8.70;61.02;100961.72;5451958;25;61178;-81
2024/04/16 04:15:33;;;;;;;;;5.00;0.75;;;;;8.75;61.05;100971.81;5452771;25;69824;-77
2024/04/16 04:17:58;;;;;;;;;1.00;0.75;;;;;8.72;61.14;100970.34;5451758;25;69935;-78
2024/04/16 04:20:24;;;;;;;;;3.00;0.50;;;;;8.75;61.00;100972.66;5449663;25;66846;-76
2024/04/16 04:22:49;;;;;;;;;5.25;0.00;;;;;8.70;61.76;100982.06;5407876;26;54142;-79
2024/04/16 04:25:15;;;;;;;;;1.75;0.00;;;;;8.73;61.26;100987.84;5383892;26;68360;-81
2024/04/16 04:27:41;;;;;;;;;3.00;1.25;;;;;8.70;61.21;100985.50;5412409;26;44751;-77
2024/04/16 04:30:10;;;;;;;;;1.75;1.00;;;;;8.74;61.61;100994.78;5392048;26;44662;-81
2024/04/16 04:32:35;;;;;;;;;0.75;0.75;;;;;8.74;61.58;100991.31;5450257;25;44026;-82
2024/04/16 04:35:01;;;;;;;;;0.75;0.00;;;;;8.72;62.06;100990.66;5451466;26;44045;-77
2024/04/16 04:37:27;;;;;;;;;4.50;0.75;;;;;8.74;62.05;101001.88;5373830;26;45801;-77
2024/04/16 04:39:52;;;;;;;;;6.00;0.50;;;;;8.71;62.06;100991.63;5449733;26;44222;-78
2024/04/16 04:42:18;;;;;;;;;2.75;0.00;;;;;8.75;62.39;101006.19;5452408;25;43962;-77
2024/04/16 04:44:43;;;;;;;;;2.75;0.00;;;;;8.75;62.73;101003.53;5451725;25;44443;-77
2024/04/16 04:47:09;;;;;;;;;4.00;0.00;;;;;8.70;62.89;100998.72;5452253;25;68874;-76
2024/04/16 04:49:34;;;;;;;;;2.25;1.00;;;;;8.74;63.03;101000.06;5451078;25;68320;-79
2024/04/16 04:52:00;;;;;;;;;2.75;0.00;;;;;8.70;63.09;100998.72;5452558;26;62654;-80
2024/04/16 04:54:25;;;;;;;;;2.00;0.00;;;;;8.76;63.44;100991.97;5397346;26;44080;-74
2024/04/16 04:56:51;;;;;;;;;0.00;0.00;;;;;8.75;63.37;100996.44;5449808;25;68796;-78
2024/04/16 04:59:16;;;;;;;;;0.00;0.00;;;;;8.78;62.95;100997.09;5451033;26;44071;-74
2024/04/16 05:01:41;;;;;;;;;2.00;1.00;;;;;8.77;63.27;101001.56;5453128;25;43981;-75
2024/04/16 05:04:07;;;;;;;;;1.50;0.25;;;;;8.79;62.98;101002.22;5451047;25;67610;-76
2024/04/16 05:06:33;;;;;;;;;0.00;0.00;;;;;8.79;63.22;101004.84;5451982;25;44818;-75
2024/04/16 05:08:59;;;;;;;;;3.00;0.25;;;;;8.79;63.41;101001.41;5450999;26;44272;-74
2024/04/16 05:11:24;;;;;;;;;2.00;1.00;;;;;8.79;62.98;101006.69;5450051;25;44138;-74
2024/04/16 05:13:50;;;;;;;;;3.00;0.25;;;;;8.77;63.70;100998.09;5434577;26;43968;-75
2024/04/16 05:16:16;;;;;;;;;8.50;1.00;;;;;8.79;63.09;100998.75;5385839;26;46444;-75
2024/04/16 05:18:41;;;;;;;;;3.00;1.25;;;;;8.79;63.52;100991.63;5453766;25;64514;-76
2024/04/16 05:21:07;;;;;;;;;2.75;0.50;;;;;8.81;63.55;100994.13;5421143;26;44430;-75
2024/04/16 05:23:35;;;;;;;;;3.25;2.00;;;;;8.80;63.60;100995.94;5455833;25;44000;-74
2024/04/16 05:26:02;;;;;;;;;6.50;2.00;;;;;8.79;64.21;100996.91;5450331;25;44211;-74
2024/04/16 05:28:29;;;;;;;;;2.00;1.00;;;;;8.78;63.69;100997.91;5453531;25;44889;-74
2024/04/16 05:30:54;;;;;;;;;1.00;0.50;;;;;8.78;64.15;100999.75;5446462;25;44029;-75
2024/04/16 05:33:19;;;;;;;;;2.00;1.25;;;;;8.78;63.92;100999.75;5452227;26;65469;-75
2024/04/16 05:35:45;;;;;;;;;4.00;1.00;;;;;8.80;63.86;101000.41;5453126;25;69160;-74
2024/04/16 05:38:10;;;;;;;;;0.75;0.00;;;;;8.77;64.36;100998.09;5445637;26;65102;-74
2024/04/16 05:40:36;;;;;;;;;6.00;1.00;;;;;8.82;63.53;100996.59;5385323;26;44013;-76
2024/04/16 05:43:01;;;;;;;;;6.00;0.00;;;;;8.84;64.17;100991.97;5449306;26;46356;-74
2024/04/16 05:45:27;;;;;;;;;5.00;1.25;;;;;8.86;64.29;100997.09;5447874;26;67856;-76
2024/04/16 05:47:52;;;;;;;;;1.50;0.50;;;;;8.72;64.16;100978.28;5414777;25;44300;-74
2024/04/16 05:50:18;;;;;;;;;2.25;1.50;;;;;8.85;63.71;101003.38;5457062;25;44381;-74
2024/04/16 05:52:44;;;;;;;;;6.25;0.50;;;;;8.90;63.50;101003.69;5450089;26;45630;-76
2024/04/16 05:55:09;;;;;;;;;4.50;1.00;;;;;8.94;63.84;101006.81;5445816;26;69599;-75
2024/04/16 05:57:34;;;;;;;;;4.00;1.00;;;;;8.94;64.08;101010.31;5452818;25;68396;-74
2024/04/16 06:00:00;;;;;;;;;4.50;2.00;;;;;8.95;64.33;101006.66;5453801;25;64629;-76
2024/04/16 06:02:26;;;;;;;;;3.00;1.00;;;;;8.97;63.86;100996.75;5419368;26;43958;-74
2024/04/16 06:04:51;;;;;;;;;3.00;1.00;;;;;9.01;64.18;101002.50;5451633;26;44230;-74
2024/04/16 06:07:17;;;;;;;;;9.00;2.00;;;;;8.86;64.34;100978.59;5453189;25;43912;-75
2024/04/16 06:09:42;;;;;;;;;2.00;1.00;;;;;8.92;63.89;100980.56;5421915;26;49341;-74
2024/04/16 06:12:08;;;;;;;;;1.50;0.75;;;;;9.08;64.18;101006.13;5448759;26;44110;-72
2024/04/16 06:14:33;;;;;;;;;7.25;1.00;;;;;9.09;64.00;101013.09;5452128;26;66806;-70
2024/04/16 06:16:58;;;;;;;;;1.00;0.75;;;;;9.09;63.87;101009.63;5444959;25;54376;-68
2024/04/16 06:19:24;;;;;;;;;0.75;0.75;;;;;9.11;64.31;101008.47;5452583;25;62875;-69
2024/04/16 06:21:49;;;;;;;;;5.25;1.00;;;;;9.17;63.75;101013.09;5451719;25;64402;-69
2024/04/16 06:24:14;;;;;;;;;5.50;2.00;;;;;9.23;64.25;101040.69;5454166;25;70479;-70
2024/04/16 06:26:40;;;;;;;;;3.00;2.00;;;;;9.28;64.21;101027.75;5446752;26;63459;-70
2024/04/16 06:29:06;;;;;;;;;4.50;1.50;;;;;9.33;63.83;101014.84;5392036;26;44330;-68
2024/04/16 06:31:31;;;;;;;;;7.25;2.00;;;;;9.37;64.08;101020.66;5449804;25;43985;-68
2024/04/16 06:33:57;;;;;;;;;3.00;1.75;;;;;9.40;64.35;101011.53;5448186;25;44692;-69
2024/04/16 06:36:22;;;;;;;;;2.00;2.00;;;;;9.41;63.86;101011.38;5448914;25;68526;-69
2024/04/16 06:38:48;;;;;;;;;6.25;2.25;;;;;9.44;64.27;101011.03;5451407;25;44541;-71
2024/04/16 06:41:13;;;;;;;;;6.25;3.00;;;;;9.48;63.66;101014.19;5452557;25;66865;-71
2024/04/16 06:43:38;;;;;;;;;2.00;1.00;;;;;9.50;63.90;101019.28;5451467;25;53436;-71
2024/04/16 06:46:04;;;;;;;;;11.50;1.00;;;;;9.51;63.50;101018.28;5453049;25;67669;-78
2024/04/16 06:48:30;;;;;;;;;7.00;1.25;;;;;9.55;64.24;101016.94;5443604;26;44128;-74
2024/04/16 06:50:56;;;;;;;;;5.25;1.00;;;;;9.60;64.67;101025.19;5454377;26;44026;-74
2024/04/16 06:53:21;;;;;;;;;4.50;1.75;;;;;9.62;63.89;101023.22;5450541;25;43938;-72
2024/04/16 06:56:02;;;;;;;;;1.00;1.00;;;;;9.73;63.99;101014.88;5452232;26;49144;-69
2024/04/16 06:58:28;;;;;;;;;2.25;2.00;;;;;9.78;63.54;101028.44;5447856;26;44083;-69
2024/04/16 07:00:54;;;;;;;;;3.25;2.00;;;;;9.81;62.81;101027.28;5393183;26;44363;-72
2024/04/16 07:03:20;;;;;;;;;5.50;1.25;;;;;9.80;63.34;101030.94;5440882;26;44375;-68
2024/04/16 07:05:46;;;;;;;;;5.00;1.50;;;;;9.76;63.57;101019.84;5453007;25;44065;-68
2024/04/16 07:08:11;;;;;;;;;12.25;6.25;;;;;9.87;63.82;101031.06;5454407;25;46728;-67
2024/04/16 07:10:36;;;;;;;;;7.75;1.00;;;;;9.86;64.10;101030.22;5453543;25;66062;-70
2024/04/16 07:13:02;;;;;;;;;3.50;2.00;;;;;9.90;64.10;101030.72;5451584;26;54663;-73
2024/04/16 07:15:27;;;;;;;;;5.00;0.75;;;;;9.94;63.13;101033.84;5450770;25;55573;-69
2024/04/16 07:17:53;;;;;;;;;2.00;0.75;;;;;9.95;63.51;101033.69;5454430;26;44095;-69
2024/04/16 07:20:18;;;;;;;;;5.25;1.50;;;;;9.97;63.93;101031.69;5447269;26;44938;-68
2024/04/16 07:22:43;;;;;;;;;6.00;1.75;;;;;9.97;63.35;101036.13;5452800;25;71288;-67
2024/04/16 07:25:09;;;;;;;;;3.75;1.00;;;;;9.98;63.07;101035.97;5449970;26;65361;-68
2024/04/16 07:27:34;;;;;;;;;5.00;2.00;;;;;10.00;63.22;101031.34;5446491;25;44056;-70
2024/04/16 07:30:00;;;;;;;;;8.00;2.00;;;;;10.00;62.93;101035.78;5451729;25;68350;-73
2024/04/16 07:32:25;;;;;;;;;7.00;3.25;;;;;10.01;62.96;101034.78;5390339;26;45226;-72
2024/04/16 07:34:51;;;;;;;;;2.00;1.00;;;;;10.03;63.73;101033.63;5446000;26;44098;-72
2024/04/16 07:37:16;;;;;;;;;3.00;1.00;;;;;10.09;63.90;101033.94;5449451;25;61958;-71
2024/04/16 07:39:41;;;;;;;;;6.50;1.00;;;;;10.06;63.02;101030.63;5448581;25;43952;-71
2024/04/16 07:42:07;;;;;;;;;3.00;1.00;;;;;10.10;63.60;101048.84;5450315;25;71006;-75
2024/04/16 07:44:35;;;;;;;;;2.75;2.00;;;;;10.10;64.00;101041.69;5384855;26;44578;-71
2024/04/16 07:47:01;;;;;;;;;6.50;1.00;;;;;10.10;63.48;101035.59;5449087;25;44806;-74
2024/04/16 07:49:26;;;;;;;;;7.00;2.00;;;;;10.12;63.38;101036.25;5446550;25;43912;-72
2024/04/16 07:51:52;;;;;;;;;1.00;1.00;;;;;10.12;64.41;101037.06;5447889;25;54237;-71
2024/04/16 07:54:17;;;;;;;;;10.25;1.00;;;;;10.15;64.29;101047.31;5447262;25;69201;-70
2024/04/16 07:56:42;;;;;;;;;3.25;1.50;;;;;10.16;64.06;101053.44;5446681;25;59306;-76
2024/04/16 07:59:08;;;;;;;;;2.50;1.00;;;;;10.19;64.47;101053.09;5448552;26;63451;-71
2024/04/16 08:01:33;;;;;;;;;2.75;1.00;;;;;10.20;64.21;101052.91;5449752;25;54939;-72
2024/04/16 08:03:58;;;;;;;;;3.50;1.25;;;;;10.17;64.51;101053.25;5447819;25;60396;-72
2024/04/16 08:06:24;;;;;;;;;3.25;1.25;;;;;10.23;64.47;101048.28;5450914;25;66253;-73
2024/04/16 08:08:50;;;;;;;;;3.00;1.00;;;;;10.25;64.71;101043.63;5442835;25;47209;-72
2024/04/16 08:11:16;;;;;;;;;3.00;0.50;;;;;10.20;64.54;101065.34;5450529;26;45708;-70
2024/04/16 08:13:42;;;;;;;;;7.75;1.00;;;;;10.20;65.30;101054.75;5407278;26;52526;-70
2024/04/16 08:16:07;;;;;;;;;6.00;1.50;;;;;10.17;65.52;101042.66;5447129;26;44083;-74
2024/04/16 08:18:32;;;;;;;;;2.25;1.00;;;;;10.19;65.46;101047.78;5449093;25;43991;-69
2024/04/16 08:20:58;;;;;;;;;2.00;2.00;;;;;10.21;64.99;101046.59;5443994;26;68920;-73
2024/04/16 08:23:23;;;;;;;;;9.75;1.00;;;;;10.35;66.31;101055.63;5446558;25;65582;-70
2024/04/16 08:26:01;;;;;;;;;3.50;1.25;;;;;10.49;66.27;101046.16;5443973;26;44510;-76
2024/04/16 08:28:27;;;;;;;;;5.00;1.50;;;;;10.62;65.85;101053.53;5417735;26;44449;-77
2024/04/16 08:30:53;;;;;;;;;2.75;1.00;;;;;10.66;65.48;101058.47;5450242;25;43976;-72
2024/04/16 08:33:20;;;;;;;;;2.50;2.00;;;;;10.64;65.71;101056.81;5450080;25;44405;-71
2024/04/16 08:35:46;;;;;;;;;2.25;2.00;;;;;10.63;65.95;101051.69;5418141;26;44029;-73
2024/04/16 08:38:11;;;;;;;;;0.00;0.00;;;;;10.65;65.34;101052.34;5451660;25;44051;-74
2024/04/16 08:40:37;;;;;;;;;4.25;1.00;;;;;10.67;66.64;101049.50;5445675;25;70824;-74
2024/04/16 08:43:02;;;;;;;;;6.00;2.00;;;;;10.72;65.11;101073.69;5447890;26;44029;-70
2024/04/16 08:45:28;;;;;;;;;3.50;1.00;;;;;10.67;65.23;101079.50;5451192;25;43943;-74
2024/04/16 08:47:53;;;;;;;;;5.50;1.50;;;;;10.62;65.16;101079.19;5441115;26;47479;-69
2024/04/16 08:50:20;;;;;;;;;3.25;3.00;;;;;10.60;66.04;101081.19;5443360;26;70639;-78
2024/04/16 08:52:46;;;;;;;;;0.50;0.00;;;;;10.53;64.56;101064.34;5416571;26;44060;-79
2024/04/16 08:55:11;;;;;;;;;0.50;0.00;;;;;10.48;65.80;101052.44;5448866;26;44190;-77
2024/04/16 08:57:37;;;;;;;;;1.00;1.00;;;;;10.49;65.38;101045.31;5446305;26;65167;-75
2024/04/16 09:00:02;;;;;;;;;2.75;1.00;;;;;10.71;65.51;101048.97;5446486;26;69741;-74
2024/04/16 09:02:27;;;;;;;;;8.00;2.00;;;;;10.96;66.67;101054.06;5450846;25;43979;-85
2024/04/16 09:04:56;;;;;;;;;0.00;0.00;;;;;11.18;66.16;101051.56;5417370;26;52445;-76
2024/04/16 09:07:21;;;;;;;;;2.25;1.00;;;;;11.23;65.44;101057.97;5449910;26;44061;-70
2024/04/16 09:09:47;;;;;;;;;1.75;1.00;;;;;11.25;65.44;101062.28;5446622;26;45217;-74
2024/04/16 09:12:12;;;;;;;;;5.50;1.00;;;;;11.23;65.03;101057.97;5445189;26;65820;-75
2024/04/16 09:14:37;;;;;;;;;1.75;1.00;;;;;11.29;66.20;101066.22;5416549;26;69064;-76
2024/04/16 09:17:03;;;;;;;;;1.25;0.75;;;;;11.43;65.38;101053.97;5441626;26;60045;-70
2024/04/16 09:19:29;;;;;;;;;2.25;1.00;;;;;11.63;65.05;101052.41;5388804;26;45392;-71
2024/04/16 09:21:59;;;;;;;;;3.00;2.00;;;;;11.85;65.56;101059.63;5433396;26;64270;-76
2024/04/16 09:24:24;;;;;;;;;5.50;1.50;;;;;12.00;63.78;101057.81;5448637;26;44045;-72
2024/04/16 09:26:49;;;;;;;;;4.25;1.00;;;;;12.19;64.29;101060.91;5447124;26;55413;-73
2024/04/16 09:29:23;;;;;;;;;4.75;2.75;;;;;12.37;63.78;101063.13;5443996;25;72752;-75
2024/04/16 09:31:58;;;;;;;;;2.75;2.25;;;;;12.52;64.00;101066.59;5448142;26;44482;-70
2024/04/16 09:34:24;;;;;;;;;5.50;3.00;;;;;12.64;63.31;101061.56;5448540;26;44094;-70
2024/04/16 09:36:49;;;;;;;;;7.75;3.00;;;;;12.82;63.20;101066.44;5449796;25;43978;-76
2024/04/16 09:39:21;;;;;;;;;4.50;3.75;;;;;12.96;62.50;101058.56;5447640;25;44630;-70
2024/04/16 09:41:50;;;;;;;;;4.75;2.50;;;;;13.16;61.95;101065.88;5425955;25;44133;-75
2024/04/16 09:44:16;;;;;;;;;3.75;3.00;;;;;13.31;61.65;101057.81;5439050;26;43980;-75
2024/04/16 09:46:45;;;;;;;;;5.00;2.00;;;;;13.45;60.97;101067.56;5432255;26;54102;-73
2024/04/16 09:49:15;;;;;;;;;5.00;1.50;;;;;13.54;60.71;101073.56;5440323;25;44153;-75
2024/04/16 09:51:41;;;;;;;;;5.25;1.50;;;;;13.56;61.81;101059.00;5446607;25;44320;-73
2024/04/16 09:54:06;;;;;;;;;1.50;1.50;;;;;13.69;60.31;101060.94;5414870;26;44163;-74
2024/04/16 09:56:35;;;;;;;;;4.25;0.75;;;;;13.67;59.08;101062.97;5417281;26;64516;-75
2024/04/16 09:59:01;;;;;;;;;2.50;1.00;;;;;13.58;59.03;101060.66;5408889;26;44370;-77
2024/04/16 10:01:28;;;;;;;;;3.50;1.00;;;;;13.49;59.27;101091.97;5410579;26;44034;-75
2024/04/16 10:03:53;;;;;;;;;4.00;1.00;;;;;13.37;58.97;101113.78;5445336;25;44111;-72
2024/04/16 10:06:19;;;;;;;;;0.50;0.00;;;;;13.21;58.63;101106.91;5441953;25;62652;-74
2024/04/16 10:08:44;;;;;;;;;0.00;0.00;;;;;13.00;59.36;101099.75;5446745;25;69494;-70
2024/04/16 10:11:10;;;;;;;;;1.00;0.00;;;;;12.80;58.97;101103.06;5417510;26;63569;-73
2024/04/16 10:13:38;;;;;;;;;1.00;0.00;;;;;12.60;59.99;101097.53;5448534;25;44135;-76
2024/04/16 10:16:15;;;;;;;;;0.00;0.00;;;;;12.46;59.91;101096.56;5435168;25;44582;-71
2024/04/16 10:18:40;;;;;;;;;1.00;0.00;;;;;12.45;59.11;101086.94;5450172;25;44147;-71
2024/04/16 10:21:06;;;;;;;;;0.25;0.00;;;;;12.59;59.61;101095.88;5449382;26;43970;-75
2024/04/16 10:23:31;;;;;;;;;1.00;0.00;;;;;12.81;60.12;101085.25;5452537;25;43887;-73
2024/04/16 10:25:58;;;;;;;;;0.75;0.00;;;;;13.02;59.49;101076.44;5450825;25;55306;-70
2024/04/16 10:28:33;;;;;;;;;0.75;0.00;;;;;13.30;59.94;101083.63;5418587;26;45739;-72
2024/04/16 10:31:06;;;;;;;;;0.00;0.00;;;;;13.60;59.10;101086.09;5443929;26;44075;-74
2024/04/16 10:33:34;;;;;;;;;0.50;0.50;;;;;13.87;59.80;101088.88;5451671;25;43922;-79
2024/04/16 10:35:59;;;;;;;;;1.75;1.75;;;;;14.11;57.76;101081.41;5447328;26;44082;-75
2024/04/16 10:38:25;;;;;;;;;2.75;0.00;;;;;14.28;57.61;101081.88;5452591;26;68355;-71
2024/04/16 10:40:54;;;;;;;;;0.00;0.00;;;;;14.29;57.08;101071.00;5449037;26;66487;-74
2024/04/16 10:43:21;;;;;;;;;1.00;1.00;;;;;14.24;56.55;101076.13;5449509;25;44217;-73
2024/04/16 10:45:47;;;;;;;;;1.25;1.00;;;;;14.13;57.07;101072.19;5447516;25;44326;-74
2024/04/16 10:48:12;;;;;;;;;3.25;1.00;;;;;14.11;56.45;101068.91;5416636;26;45442;-72
2024/04/16 10:50:38;;;;;;;;;0.50;0.00;;;;;14.10;56.34;101053.91;5411492;26;44191;-72
2024/04/16 10:53:16;;;;;;;;;3.50;1.00;;;;;14.08;57.01;101063.16;5448465;25;44670;-70
2024/04/16 10:55:41;;;;;;;;;0.75;0.75;;;;;14.15;56.37;101061.34;5445186;26;44016;-73
2024/04/16 10:58:18;;;;;;;;;1.75;1.00;;;;;14.32;56.15;101056.44;5447396;26;52925;-74
2024/04/16 11:00:43;;;;;;;;;2.00;2.00;;;;;14.37;56.26;101061.19;5419015;26;45845;-76
2024/04/16 11:03:10;;;;;;;;;2.50;1.00;;;;;14.31;55.74;101049.47;5447686;26;44121;-75
2024/04/16 11:05:41;;;;;;;;;2.00;1.00;;;;;14.18;55.30;101046.75;5452419;25;44086;-74
2024/04/16 11:08:07;;;;;;;;;3.00;1.00;;;;;14.01;55.51;101052.47;5451157;25;45131;-69
2024/04/16 11:10:33;;;;;;;;;3.00;0.75;;;;;13.90;54.97;101053.03;5417800;26;62893;-74
2024/04/16 11:12:58;;;;;;;;;2.50;1.00;;;;;13.78;56.65;101064.25;5451175;25;44322;-76
2024/04/16 11:15:24;;;;;;;;;3.50;1.00;;;;;13.68;57.61;101064.63;5446846;25;44327;-71
2024/04/16 11:17:49;;;;;;;;;1.00;1.00;;;;;13.56;58.38;101074.19;5450823;25;66527;-76
2024/04/16 11:20:15;;;;;;;;;3.00;2.00;;;;;13.42;58.42;101089.25;5442695;25;69248;-77
2024/04/16 11:22:40;;;;;;;;;4.00;0.00;;;;;13.29;59.01;101092.63;5433325;26;64284;-74
2024/04/16 11:25:15;;;;;;;;;0.25;0.00;;;;;13.15;59.16;101085.53;5437278;25;67915;-75
2024/04/16 11:27:40;;;;;;;;;2.75;0.00;;;;;13.03;58.86;101077.28;5413271;26;45098;-70